Articles

Pooleys Chart - EITM

Share

Trim Flying Club Pooleys Chart for Trim Airfield

Share

Trim Flying Club goes to the Aran Islands

Learn to fly at Trim Flying Club

Rainfall Radar Now

Atlantic Charts Pressure - Today

Atlantic Charts Rainfall - Today

 
 

Atlantic Charts Pressure - Tomorrow

Sunrise Sunset

Click for Dublin, Ireland Forecast

Aviation WX Dublin EIDW

[source: ADDS]
METAR
EIDW 210730Z 07012KT 4000 BR SCT005 SCT040 BKN250 10/08 Q1007 BECMG BKN010 =
TAF
TAF COR EIDW 210540Z 2106/2206 08015KT 9999 SCT006 BKN018 TEMPO 2106/2111 4000 BR BKN008 PROB30 TEMPO 2117/2206 5000 -RA BKN010 =